Terminal Aerodrome Forecast
Issued by NWS

Home | Current Version | Previous Version | Text Only | Print | Product List | Glossary Off
Versions: 1 2 3 4 5 6 7 8 9 10 11 12 13

000
FTUS43 KMPX 161722
TAFRNH
TAF
KRNH 161722Z 1618/1718 23008KT P6SM SCT060 BKN120
     FM170300 28008KT P6SM SCT060 SCT120
     FM170600 32004KT P6SM FEW120=

USA.gov is the U.S. government's official web portal to all federal, state and local government web resources and services.